createdAt,value
2023-02-02T00:01:16.138Z,90.40
2023-02-02T00:03:43.436Z,90.50
2023-02-02T00:06:10.951Z,90.20
2023-02-02T00:08:39.227Z,90.20
2023-02-02T00:11:06.653Z,90.00
2023-02-02T00:13:34.101Z,89.70
2023-02-02T00:16:27.027Z,89.20
2023-02-02T00:18:59.098Z,88.60
2023-02-02T00:21:26.344Z,88.30
2023-02-02T00:23:53.860Z,88.30
2023-02-02T00:26:21.614Z,88.00
2023-02-02T00:28:49.015Z,87.70
2023-02-02T00:31:16.670Z,87.00
2023-02-02T00:33:50.863Z,87.20
2023-02-02T00:36:20.122Z,86.50
2023-02-02T00:38:48.378Z,87.30
2023-02-02T00:41:15.863Z,86.80
2023-02-02T00:43:43.483Z,87.80
2023-02-02T00:46:16.630Z,88.30
2023-02-02T00:48:43.780Z,88.50
2023-02-02T00:51:10.999Z,89.10
2023-02-02T00:53:38.157Z,89.50
2023-02-02T00:56:05.574Z,89.90
2023-02-02T00:58:32.714Z,90.10
2023-02-02T01:00:59.939Z,90.20
2023-02-02T01:03:27.111Z,90.60
2023-02-02T01:05:54.263Z,90.20
2023-02-02T01:08:21.429Z,90.30
2023-02-02T01:10:48.558Z,90.40
2023-02-02T01:13:15.803Z,90.50
2023-02-02T01:15:43.467Z,90.60
2023-02-02T01:18:11.059Z,90.60
2023-02-02T01:20:38.214Z,90.70
2023-02-02T01:23:05.349Z,90.80
2023-02-02T01:25:35.125Z,90.90
2023-02-02T01:28:02.281Z,91.00
2023-02-02T01:30:29.408Z,91.20
2023-02-02T01:32:56.574Z,91.50
2023-02-02T01:35:24.051Z,91.80
2023-02-02T01:37:51.335Z,92.10
2023-02-02T01:40:18.637Z,92.20
2023-02-02T01:42:45.775Z,92.60
2023-02-02T01:45:16.809Z,92.90
2023-02-02T01:47:52.213Z,93.10
2023-02-02T01:50:23.696Z,93.40
2023-02-02T01:52:55.512Z,93.50
2023-02-02T01:55:26.451Z,93.80
2023-02-02T01:58:01.748Z,93.90
2023-02-02T02:00:29.070Z,94.10
2023-02-02T02:03:06.711Z,94.20
2023-02-02T02:05:38.235Z,94.30
2023-02-02T02:08:22.327Z,94.30
2023-02-02T02:10:49.918Z,94.10
2023-02-02T02:13:19.428Z,94.50
2023-02-02T02:16:13.788Z,94.50
2023-02-02T02:18:53.947Z,94.60
2023-02-02T02:22:09.449Z,94.60
2023-02-02T02:25:37.223Z,94.70
2023-02-02T02:28:23.434Z,94.70
2023-02-02T02:30:57.891Z,94.70
2023-02-02T02:33:46.131Z,94.60
2023-02-02T02:36:25.244Z,94.60
2023-02-02T02:39:24.622Z,94.50
2023-02-02T02:42:00.275Z,94.40
2023-02-02T02:44:30.318Z,94.30
2023-02-02T02:46:57.928Z,94.10
2023-02-02T02:49:25.126Z,93.90
2023-02-02T02:51:54.297Z,93.70
2023-02-02T02:54:53.342Z,93.50
2023-02-02T02:57:55.389Z,93.30
2023-02-02T03:00:38.572Z,93.10
2023-02-02T03:03:28.875Z,92.90
2023-02-02T03:06:15.923Z,92.70
2023-02-02T03:08:51.882Z,92.50
2023-02-02T03:11:19.809Z,92.40
2023-02-02T03:13:48.002Z,92.30
2023-02-02T03:16:16.610Z,92.20
2023-02-02T03:18:44.097Z,92.10
2023-02-02T03:21:12.020Z,92.00
2023-02-02T03:23:39.538Z,91.90
2023-02-02T03:26:07.078Z,91.70
2023-02-02T03:28:34.718Z,91.60
2023-02-02T03:31:02.595Z,91.50
2023-02-02T03:33:31.526Z,91.50
2023-02-02T03:35:59.010Z,91.80
2023-02-02T03:38:26.170Z,92.10
2023-02-02T03:40:53.411Z,92.10
2023-02-02T03:43:24.159Z,92.20
2023-02-02T03:46:02.125Z,92.10
2023-02-02T03:48:29.575Z,92.10
2023-02-02T03:50:57.130Z,92.00
2023-02-02T03:53:24.306Z,92.00
2023-02-02T03:55:51.508Z,91.90
2023-02-02T03:58:22.120Z,91.80
2023-02-02T04:00:49.715Z,91.60
2023-02-02T04:03:16.885Z,91.50
2023-02-02T04:05:44.071Z,91.40
2023-02-02T04:08:11.276Z,91.40
2023-02-02T04:10:42.315Z,91.20
2023-02-02T04:13:09.532Z,91.10
2023-02-02T04:15:36.667Z,91.00
2023-02-02T04:18:03.970Z,91.00
2023-02-02T04:20:31.192Z,90.60
2023-02-02T04:22:58.347Z,90.90
2023-02-02T04:25:25.929Z,90.80
2023-02-02T04:27:53.471Z,90.80
2023-02-02T04:30:20.775Z,91.00
2023-02-02T04:32:48.039Z,90.80
2023-02-02T04:35:15.224Z,90.70
2023-02-02T04:37:42.429Z,90.70
2023-02-02T04:40:10.175Z,90.20
2023-02-02T04:42:37.326Z,90.60
2023-02-02T04:45:04.923Z,90.50
2023-02-02T04:47:32.068Z,90.50
2023-02-02T04:49:59.204Z,90.40
2023-02-02T04:52:26.432Z,90.40
2023-02-02T04:54:53.626Z,90.40
2023-02-02T04:57:20.826Z,90.40
2023-02-02T04:59:47.963Z,90.40
2023-02-02T05:02:15.097Z,90.40
2023-02-02T05:04:42.292Z,90.40
2023-02-02T05:07:09.517Z,90.30
2023-02-02T05:09:36.679Z,90.20
2023-02-02T05:12:04.195Z,90.20
2023-02-02T05:14:31.296Z,90.20
2023-02-02T05:16:58.515Z,90.10
2023-02-02T05:19:25.793Z,90.10
2023-02-02T05:21:54.594Z,90.10
2023-02-02T05:24:21.761Z,90.10
2023-02-02T05:26:48.951Z,90.00
2023-02-02T05:29:16.111Z,90.00
2023-02-02T05:31:43.280Z,90.00
2023-02-02T05:34:11.461Z,90.00
2023-02-02T05:36:38.742Z,90.20
2023-02-02T05:39:05.964Z,90.40
2023-02-02T05:41:33.235Z,90.50
2023-02-02T05:44:00.642Z,90.60
2023-02-02T05:46:28.154Z,90.70
2023-02-02T05:48:55.397Z,90.70
2023-02-02T05:51:27.601Z,90.80
2023-02-02T05:53:55.169Z,90.90
2023-02-02T05:56:22.487Z,90.90
2023-02-02T05:58:49.857Z,91.00
2023-02-02T06:01:18.995Z,91.10
2023-02-02T06:03:46.223Z,91.30
2023-02-02T06:06:13.935Z,91.30
2023-02-02T06:08:41.062Z,91.50
2023-02-02T06:11:13.147Z,91.60
2023-02-02T06:13:40.725Z,91.80
2023-02-02T06:16:08.500Z,91.90
2023-02-02T06:18:36.453Z,92.00
2023-02-02T06:21:05.983Z,92.10
2023-02-02T06:23:34.252Z,92.30
2023-02-02T06:26:03.376Z,92.30
2023-02-02T06:28:31.835Z,92.50
2023-02-02T06:31:06.404Z,92.60
2023-02-02T06:33:33.896Z,92.70
2023-02-02T06:36:02.923Z,92.80
2023-02-02T06:38:30.313Z,93.00
2023-02-02T06:41:00.837Z,93.00
2023-02-02T06:43:28.972Z,93.00
2023-02-02T06:45:59.981Z,93.10
2023-02-02T06:48:27.576Z,93.10
2023-02-02T06:51:01.797Z,93.20
2023-02-02T06:53:29.018Z,93.70
2023-02-02T06:55:57.825Z,93.30
2023-02-02T06:58:25.341Z,93.40
2023-02-02T07:00:53.135Z,93.40
2023-02-02T07:03:21.820Z,93.40
2023-02-02T07:05:49.650Z,93.20
2023-02-02T07:08:17.163Z,93.20
2023-02-02T07:11:13.379Z,93.10
2023-02-02T07:13:31.835Z,92.90
2023-02-02T07:15:59.146Z,92.80
2023-02-02T07:18:26.726Z,92.60
2023-02-02T07:20:53.887Z,92.50
2023-02-02T07:23:21.010Z,92.40
2023-02-02T07:25:48.159Z,92.30
2023-02-02T07:28:15.281Z,92.20
2023-02-02T07:30:42.550Z,92.00
2023-02-02T07:33:09.764Z,92.00
2023-02-02T07:35:36.907Z,91.90
2023-02-02T07:38:04.099Z,91.80
2023-02-02T07:40:31.358Z,91.80
2023-02-02T07:43:00.864Z,91.70
2023-02-02T07:45:28.383Z,91.60
2023-02-02T07:47:59.851Z,91.50
2023-02-02T07:50:29.119Z,91.40
2023-02-02T07:52:58.318Z,91.30
2023-02-02T07:55:25.557Z,91.20
2023-02-02T07:57:55.230Z,91.10
2023-02-02T08:00:23.212Z,91.00
2023-02-02T08:02:50.648Z,90.90
2023-02-02T08:05:17.907Z,90.80
2023-02-02T08:07:45.223Z,90.70
2023-02-02T08:10:12.572Z,90.60
2023-02-02T08:12:39.796Z,90.50
2023-02-02T08:15:07.758Z,90.40
2023-02-02T08:17:35.035Z,90.30
2023-02-02T08:20:02.207Z,90.20
2023-02-02T08:22:29.373Z,90.10
2023-02-02T08:24:56.575Z,90.00
2023-02-02T08:27:23.716Z,89.90
2023-02-02T08:29:50.875Z,89.70
2023-02-02T08:32:18.133Z,89.40
2023-02-02T08:34:47.930Z,89.30
2023-02-02T08:37:15.135Z,88.90
2023-02-02T08:39:42.327Z,88.70
2023-02-02T08:42:09.530Z,88.50
2023-02-02T08:45:59.819Z,88.00
2023-02-02T08:47:23.788Z,87.90
2023-02-02T08:49:51.064Z,87.90
2023-02-02T08:52:18.192Z,87.80
2023-02-02T08:54:46.052Z,87.60
2023-02-02T08:57:13.312Z,87.50
2023-02-02T08:59:40.505Z,87.60
2023-02-02T09:02:10.533Z,87.40
2023-02-02T09:04:37.696Z,87.50
2023-02-02T09:07:04.860Z,87.20
2023-02-02T09:09:32.920Z,87.10
2023-02-02T09:12:00.563Z,86.70
2023-02-02T09:14:28.049Z,86.70
2023-02-02T09:16:55.255Z,86.80
2023-02-02T09:19:22.544Z,86.80
2023-02-02T09:21:50.665Z,87.00
2023-02-02T09:24:18.129Z,87.40
2023-02-02T09:26:45.897Z,87.70
2023-02-02T09:29:15.270Z,88.10
2023-02-02T09:31:42.677Z,87.90
2023-02-02T09:34:15.127Z,87.90
2023-02-02T09:36:43.315Z,88.00
2023-02-02T09:39:15.023Z,88.30
2023-02-02T09:42:03.748Z,88.30
2023-02-02T09:44:56.959Z,88.70
2023-02-02T09:47:39.811Z,88.80
2023-02-02T09:50:18.357Z,88.30
2023-02-02T09:52:58.792Z,87.50
2023-02-02T09:56:04.309Z,87.20
2023-02-02T09:58:50.971Z,86.90
2023-02-02T10:01:23.868Z,87.20
2023-02-02T10:04:21.793Z,87.10
2023-02-02T10:06:52.585Z,87.10
2023-02-02T10:09:30.148Z,87.00
2023-02-02T10:12:28.166Z,86.70
2023-02-02T10:15:17.381Z,86.70
2023-02-02T10:17:50.967Z,86.80
2023-02-02T10:20:36.707Z,86.30
2023-02-02T10:23:14.079Z,86.10
2023-02-02T10:25:51.899Z,86.30
2023-02-02T10:28:20.531Z,86.30
2023-02-02T10:31:01.372Z,86.20
2023-02-02T10:33:39.596Z,85.40
2023-02-02T10:36:30.270Z,84.30
2023-02-02T10:39:20.087Z,83.80
2023-02-02T10:42:11.206Z,83.60
2023-02-02T10:44:52.375Z,83.10
2023-02-02T10:47:27.802Z,83.30
2023-02-02T10:50:16.483Z,83.00
2023-02-02T10:53:10.476Z,83.10
2023-02-02T10:55:53.524Z,83.40
2023-02-02T10:58:32.411Z,83.10
2023-02-02T11:01:01.324Z,82.80
2023-02-02T11:03:31.244Z,82.60
2023-02-02T11:06:20.415Z,82.50
2023-02-02T11:08:56.674Z,82.70
2023-02-02T11:11:33.991Z,82.00
2023-02-02T11:14:10.421Z,82.50
2023-02-02T11:16:45.554Z,82.00
2023-02-02T11:19:27.479Z,82.10
2023-02-02T11:21:57.050Z,82.50
2023-02-02T11:24:49.489Z,82.10
2023-02-02T11:27:35.415Z,81.70
2023-02-02T11:30:21.923Z,82.00
2023-02-02T11:32:50.815Z,81.90
2023-02-02T11:35:26.044Z,82.30
2023-02-02T11:37:57.840Z,82.70
2023-02-02T11:40:40.652Z,82.30
2023-02-02T11:43:30.125Z,82.60
2023-02-02T11:46:03.943Z,83.00
2023-02-02T11:48:36.903Z,82.80
2023-02-02T11:51:06.391Z,82.60
2023-02-02T11:53:44.956Z,82.70
2023-02-02T11:56:22.080Z,83.10
2023-02-02T11:58:51.673Z,83.20
2023-02-02T12:01:43.871Z,82.30
2023-02-02T12:04:16.726Z,83.20
2023-02-02T12:06:43.976Z,83.40
2023-02-02T12:09:14.281Z,83.80
2023-02-02T12:11:53.161Z,83.80
2023-02-02T12:14:55.481Z,83.80
2023-02-02T12:17:38.918Z,83.70
2023-02-02T12:20:39.819Z,83.80
2023-02-02T12:23:09.751Z,83.70
2023-02-02T12:25:51.808Z,83.90
2023-02-02T12:28:42.388Z,84.30
2023-02-02T12:31:31.274Z,84.10
2023-02-02T12:34:04.312Z,84.30
2023-02-02T12:37:04.169Z,84.40
2023-02-02T12:39:52.940Z,84.40
2023-02-02T12:42:42.051Z,84.50
2023-02-02T12:45:15.447Z,84.40
2023-02-02T12:48:20.905Z,84.40
2023-02-02T12:51:08.364Z,84.80
2023-02-02T12:54:33.503Z,84.60
2023-02-02T12:57:23.534Z,84.50
2023-02-02T13:00:09.249Z,84.80
2023-02-02T13:02:56.962Z,85.50
2023-02-02T13:08:35.480Z,88.10
2023-02-02T13:11:29.661Z,89.70
2023-02-02T13:14:12.093Z,90.30
2023-02-02T13:16:44.296Z,91.10
2023-02-02T13:19:20.235Z,91.30
2023-02-02T13:21:49.258Z,91.70
2023-02-02T13:24:25.355Z,92.00
2023-02-02T13:26:53.455Z,92.30
2023-02-02T13:29:26.693Z,92.50
2023-02-02T13:32:02.950Z,92.70
2023-02-02T13:34:43.971Z,93.00
2023-02-02T13:37:44.891Z,93.30
2023-02-02T13:40:27.623Z,93.40
2023-02-02T13:43:11.461Z,93.50
2023-02-02T13:45:43.668Z,93.80
2023-02-02T13:48:22.407Z,93.80
2023-02-02T13:51:12.439Z,94.00
2023-02-02T13:54:03.579Z,94.00
2023-02-02T13:56:42.743Z,94.20
2023-02-02T13:59:09.836Z,94.10
2023-02-02T14:01:47.435Z,94.50
2023-02-02T14:04:27.136Z,94.60
2023-02-02T14:06:58.921Z,94.70
2023-02-02T14:09:29.551Z,94.70
2023-02-02T14:12:09.661Z,94.70
2023-02-02T14:14:39.732Z,94.90
2023-02-02T14:17:13.067Z,94.90
2023-02-02T14:19:42.090Z,95.00
2023-02-02T14:22:09.299Z,95.00
2023-02-02T14:24:36.736Z,95.20
2023-02-02T14:27:10.183Z,95.00
2023-02-02T14:29:59.020Z,95.10
2023-02-02T14:32:29.429Z,95.40
2023-02-02T14:35:00.814Z,95.30
2023-02-02T14:37:54.660Z,95.30
2023-02-02T14:40:41.612Z,95.50
2023-02-02T14:43:39.588Z,95.50
2023-02-02T14:46:15.752Z,95.50
2023-02-02T14:48:57.077Z,95.50
2023-02-02T14:51:27.263Z,95.50
2023-02-02T14:54:00.929Z,95.50
2023-02-02T14:56:56.708Z,95.50
2023-02-02T14:59:34.677Z,95.40
2023-02-02T15:02:36.519Z,95.30
2023-02-02T15:05:28.715Z,95.20
2023-02-02T15:08:26.070Z,95.10
2023-02-02T15:11:22.506Z,95.10
2023-02-02T15:14:06.839Z,95.10
2023-02-02T15:16:37.637Z,95.10
2023-02-02T15:19:24.685Z,95.00
2023-02-02T15:21:55.479Z,94.90
2023-02-02T15:24:26.490Z,95.00
2023-02-02T15:26:55.604Z,95.00
2023-02-02T15:29:37.545Z,95.10
2023-02-02T15:32:06.276Z,95.20
2023-02-02T15:34:40.739Z,95.40
2023-02-02T15:37:14.457Z,95.50
2023-02-02T15:39:51.948Z,95.70
2023-02-02T15:42:41.297Z,95.60
2023-02-02T15:45:35.463Z,95.50
2023-02-02T15:48:13.018Z,95.60
2023-02-02T15:50:46.556Z,95.60
2023-02-02T15:53:28.771Z,95.60
2023-02-02T15:55:57.692Z,95.40
2023-02-02T15:58:39.102Z,95.30
2023-02-02T16:01:16.310Z,95.30
2023-02-02T16:04:09.985Z,95.20
2023-02-02T16:06:37.411Z,95.20
2023-02-02T16:09:06.486Z,95.20
2023-02-02T16:11:33.955Z,95.20
2023-02-02T16:14:10.096Z,95.10
2023-02-02T16:16:39.780Z,95.10
2023-02-02T16:19:20.585Z,95.10
2023-02-02T16:22:11.191Z,95.10
2023-02-02T16:24:45.940Z,95.00
2023-02-02T16:27:18.100Z,94.90
2023-02-02T16:29:45.858Z,94.80
2023-02-02T16:32:44.136Z,94.80
2023-02-02T16:35:34.294Z,94.80
2023-02-02T16:38:46.384Z,94.80
2023-02-02T16:41:24.237Z,94.80
2023-02-02T16:43:51.835Z,94.80
2023-02-02T16:46:41.521Z,94.80
2023-02-02T16:49:18.996Z,94.80
2023-02-02T16:51:48.350Z,95.10
2023-02-02T16:54:22.561Z,94.70
2023-02-02T16:57:00.814Z,94.70
2023-02-02T16:59:34.732Z,94.50
2023-02-02T17:02:16.377Z,94.40
2023-02-02T17:04:49.252Z,94.40
2023-02-02T17:07:17.382Z,94.30
2023-02-02T17:09:47.759Z,94.20
2023-02-02T17:12:34.925Z,94.20
2023-02-02T17:15:16.965Z,94.10
2023-02-02T17:17:45.355Z,94.00
2023-02-02T17:20:13.635Z,93.50
2023-02-02T17:22:53.237Z,93.90
2023-02-02T17:25:28.450Z,93.80
2023-02-02T17:27:57.793Z,93.70
2023-02-02T17:30:26.320Z,93.60
2023-02-02T17:32:53.533Z,93.60
2023-02-02T17:35:23.890Z,93.50
2023-02-02T17:37:52.648Z,93.40
2023-02-02T17:40:24.008Z,93.40
2023-02-02T17:42:53.288Z,93.40
2023-02-02T17:45:23.712Z,93.30
2023-02-02T17:47:51.411Z,93.20
2023-02-02T17:50:19.456Z,93.20
2023-02-02T17:52:48.434Z,93.20
2023-02-02T17:55:39.872Z,93.10
2023-02-02T17:58:07.580Z,93.00
2023-02-02T18:00:36.418Z,92.60
2023-02-02T18:03:19.354Z,92.90
2023-02-02T18:05:46.776Z,92.80
2023-02-02T18:08:14.784Z,92.80
2023-02-02T18:10:42.729Z,92.70
2023-02-02T18:13:15.970Z,92.70
2023-02-02T18:15:43.924Z,92.60
2023-02-02T18:18:12.378Z,92.60
2023-02-02T18:20:47.974Z,92.60
2023-02-02T18:23:18.948Z,92.60
2023-02-02T18:25:46.467Z,92.50
2023-02-02T18:28:17.115Z,92.40
2023-02-02T18:30:48.084Z,92.30
2023-02-02T18:33:19.373Z,92.30
2023-02-02T18:35:47.725Z,92.20
2023-02-02T18:38:15.211Z,92.10
2023-02-02T18:40:42.461Z,92.10
2023-02-02T18:43:09.819Z,92.00
2023-02-02T18:45:37.051Z,92.00
2023-02-02T18:48:04.257Z,91.90
2023-02-02T18:50:31.448Z,91.90
2023-02-02T18:52:58.635Z,91.80
2023-02-02T18:55:26.762Z,91.80
2023-02-02T18:57:54.220Z,91.80
2023-02-02T19:00:22.032Z,91.80
2023-02-02T19:02:49.392Z,91.80
2023-02-02T19:05:35.133Z,91.70
2023-02-02T19:08:03.880Z,91.70
2023-02-02T19:10:31.538Z,91.70
2023-02-02T19:13:19.203Z,91.70
2023-02-02T19:15:48.400Z,91.60
2023-02-02T19:18:21.282Z,91.60
2023-02-02T19:20:49.396Z,91.60
2023-02-02T19:23:18.987Z,91.50
2023-02-02T19:25:51.270Z,91.40
2023-02-02T19:28:28.119Z,91.40
2023-02-02T19:30:57.837Z,91.40
2023-02-02T19:33:39.453Z,91.40
2023-02-02T19:36:15.256Z,91.30
2023-02-02T19:38:42.482Z,91.40
2023-02-02T19:41:15.667Z,91.00
2023-02-02T19:43:47.942Z,91.30
2023-02-02T19:46:19.656Z,91.40
2023-02-02T19:48:50.707Z,91.40
2023-02-02T19:51:41.750Z,91.30
2023-02-02T19:54:31.631Z,91.30
2023-02-02T19:57:20.797Z,91.30
2023-02-02T19:59:50.305Z,91.40
2023-02-02T20:02:43.625Z,91.30
2023-02-02T20:05:10.757Z,91.30
2023-02-02T20:07:39.157Z,91.30
2023-02-02T20:10:23.004Z,91.30
2023-02-02T20:12:51.705Z,91.30
2023-02-02T20:15:36.277Z,91.20
2023-02-02T20:18:08.751Z,91.20
2023-02-02T20:20:40.521Z,91.50
2023-02-02T20:23:31.744Z,91.10
2023-02-02T20:26:01.831Z,91.50
2023-02-02T20:28:44.789Z,91.10
2023-02-02T20:31:16.088Z,91.10
2023-02-02T20:33:47.262Z,91.00
2023-02-02T20:36:28.500Z,91.00
2023-02-02T20:38:56.867Z,91.00
2023-02-02T20:41:24.367Z,90.90
2023-02-02T20:43:51.555Z,90.90
2023-02-02T20:46:18.745Z,90.90
2023-02-02T20:48:47.623Z,90.90
2023-02-02T20:51:15.748Z,90.50
2023-02-02T20:53:43.099Z,90.90
2023-02-02T20:56:10.242Z,91.00
2023-02-02T20:58:37.423Z,91.00
2023-02-02T21:01:05.717Z,91.00
2023-02-02T21:03:33.028Z,91.00
2023-02-02T21:06:00.275Z,91.10
2023-02-02T21:08:27.509Z,91.00
2023-02-02T21:10:54.645Z,91.10
2023-02-02T21:13:21.845Z,91.00
2023-02-02T21:15:49.039Z,91.00
2023-02-02T21:18:16.170Z,91.10
2023-02-02T21:20:43.368Z,91.00
2023-02-02T21:23:10.562Z,91.00
2023-02-02T21:25:37.740Z,90.90
2023-02-02T21:28:04.931Z,90.80
2023-02-02T21:30:32.474Z,90.70
2023-02-02T21:32:59.757Z,90.60
2023-02-02T21:35:26.997Z,91.00
2023-02-02T21:37:57.559Z,90.50
2023-02-02T21:40:30.310Z,90.40
2023-02-02T21:42:59.765Z,90.40
2023-02-02T21:45:38.342Z,90.30
2023-02-02T21:48:20.492Z,90.30
2023-02-02T21:50:47.772Z,90.20
2023-02-02T21:53:20.669Z,90.20
2023-02-02T21:55:52.319Z,90.10
2023-02-02T21:58:26.127Z,90.10
2023-02-02T22:00:57.192Z,90.00
2023-02-02T22:03:34.164Z,89.60
2023-02-02T22:06:23.330Z,89.30
2023-02-02T22:08:51.341Z,89.20
2023-02-02T22:11:24.614Z,89.30
2023-02-02T22:13:52.611Z,89.10
2023-02-02T22:16:20.847Z,89.00
2023-02-02T22:18:48.119Z,88.80
2023-02-02T22:21:18.823Z,88.70
2023-02-02T22:23:47.792Z,88.50
2023-02-02T22:26:33.455Z,88.40
2023-02-02T22:29:08.908Z,88.30
2023-02-02T22:31:36.114Z,88.10
2023-02-02T22:34:03.319Z,88.10
2023-02-02T22:36:30.447Z,88.10
2023-02-02T22:38:57.614Z,88.20
2023-02-02T22:41:24.771Z,88.30
2023-02-02T22:43:51.964Z,88.30
2023-02-02T22:46:19.152Z,88.50
2023-02-02T22:48:46.366Z,88.70
2023-02-02T22:51:13.541Z,89.30
2023-02-02T22:53:40.691Z,89.20
2023-02-02T22:56:07.865Z,89.10
2023-02-02T22:58:35.093Z,89.30
2023-02-02T23:01:02.207Z,89.50
2023-02-02T23:03:29.472Z,89.90
2023-02-02T23:05:56.659Z,89.90
2023-02-02T23:08:24.293Z,90.00
2023-02-02T23:10:51.427Z,89.40
2023-02-02T23:13:18.610Z,90.00
2023-02-02T23:15:45.901Z,90.00
2023-02-02T23:18:13.054Z,90.50
2023-02-02T23:20:40.249Z,90.20
2023-02-02T23:23:07.391Z,90.20
2023-02-02T23:25:34.576Z,90.20
2023-02-02T23:28:01.765Z,90.10
2023-02-02T23:30:29.220Z,89.20
2023-02-02T23:32:56.673Z,90.00
2023-02-02T23:35:23.841Z,89.90
2023-02-02T23:37:51.007Z,89.80
2023-02-02T23:40:18.522Z,89.50
2023-02-02T23:42:45.668Z,89.40
2023-02-02T23:45:13.692Z,89.30
2023-02-02T23:47:42.618Z,89.30
2023-02-02T23:50:11.231Z,89.30
2023-02-02T23:52:39.226Z,89.40
2023-02-02T23:55:07.441Z,89.80
2023-02-02T23:57:36.490Z,89.80
